createdAt,value
2018-09-13T00:02:22.403Z,1.47
2018-09-13T00:04:52.422Z,1.40
2018-09-13T00:07:22.086Z,1.00
2018-09-13T00:09:53.466Z,1.10
2018-09-13T00:12:22.875Z,0.93
2018-09-13T00:14:52.681Z,0.73
2018-09-13T00:17:22.868Z,0.80
2018-09-13T00:19:52.483Z,0.80
2018-09-13T00:22:22.194Z,0.93
2018-09-13T00:24:51.842Z,1.00
2018-09-13T00:27:21.594Z,0.70
2018-09-13T00:29:51.246Z,1.10
2018-09-13T00:32:21.756Z,1.00
2018-09-13T00:34:51.718Z,0.90
2018-09-13T00:37:21.766Z,0.70
2018-09-13T00:39:52.332Z,1.27
2018-09-13T00:42:21.760Z,1.10
2018-09-13T00:44:52.078Z,0.90
2018-09-13T00:47:21.492Z,0.80
2018-09-13T00:49:51.429Z,1.10
2018-09-13T00:52:21.044Z,1.73
2018-09-13T00:54:50.466Z,1.00
2018-09-13T00:57:20.196Z,1.63
2018-09-13T00:59:50.186Z,1.10
2018-09-13T01:02:20.258Z,1.27
2018-09-13T01:04:50.694Z,1.13
2018-09-13T01:07:22.432Z,0.83
2018-09-13T01:09:53.288Z,1.00
2018-09-13T01:12:23.597Z,1.10
2018-09-13T01:14:53.002Z,0.90
2018-09-13T01:17:22.749Z,1.13
2018-09-13T01:19:52.726Z,1.07
2018-09-13T01:22:22.448Z,0.80
2018-09-13T01:24:55.570Z,1.03
2018-09-13T01:27:26.867Z,1.70
2018-09-13T01:29:57.061Z,1.00
2018-09-13T01:32:26.819Z,1.03
2018-09-13T01:34:56.452Z,0.70
2018-09-13T01:37:25.875Z,0.67
2018-09-13T01:39:55.668Z,1.27
2018-09-13T01:42:25.646Z,1.03
2018-09-13T01:44:55.666Z,0.90
2018-09-13T01:47:30.994Z,1.27
2018-09-13T01:50:01.036Z,1.00
2018-09-13T01:52:30.692Z,1.77
2018-09-13T01:55:00.104Z,1.20
2018-09-13T01:57:29.853Z,0.93
2018-09-13T01:59:59.486Z,1.10
2018-09-13T02:02:29.208Z,1.10
2018-09-13T02:04:58.974Z,1.07
2018-09-13T02:07:28.706Z,0.70
2018-09-13T02:09:58.754Z,0.90
2018-09-13T02:12:28.456Z,0.73
2018-09-13T02:14:58.074Z,1.10
2018-09-13T02:17:27.490Z,0.77
2018-09-13T02:19:56.886Z,0.90
2018-09-13T02:22:26.692Z,0.87
2018-09-13T02:24:56.716Z,1.03
2018-09-13T02:27:26.960Z,1.30
2018-09-13T02:29:56.928Z,1.90
2018-09-13T02:32:26.960Z,1.60
2018-09-13T02:34:57.008Z,0.80
2018-09-13T02:37:26.613Z,0.80
2018-09-13T02:39:56.046Z,0.87
2018-09-13T02:42:25.842Z,0.97
2018-09-13T02:44:55.821Z,1.10
2018-09-13T02:47:25.788Z,1.27
2018-09-13T02:49:55.798Z,0.93
2018-09-13T02:52:25.770Z,1.20
2018-09-13T02:54:55.774Z,1.07
2018-09-13T02:57:25.708Z,0.70
2018-09-13T02:59:55.391Z,0.90
2018-09-13T03:02:24.788Z,0.83
2018-09-13T03:04:54.536Z,1.00
2018-09-13T03:07:25.104Z,1.20
2018-09-13T03:09:54.478Z,1.23
2018-09-13T03:12:23.888Z,0.90
2018-09-13T03:14:53.656Z,0.90
2018-09-13T03:17:23.718Z,1.30
2018-09-13T03:19:53.708Z,1.50
2018-09-13T03:22:23.366Z,0.80
2018-09-13T03:24:52.829Z,1.00
2018-09-13T03:27:22.736Z,0.77
2018-09-13T03:29:53.080Z,0.90
2018-09-13T03:32:23.078Z,0.57
2018-09-13T03:34:52.802Z,0.80
2018-09-13T03:37:22.504Z,0.70
2018-09-13T03:39:52.510Z,1.33
2018-09-13T03:42:23.214Z,0.80
2018-09-13T03:44:55.792Z,0.53
2018-09-13T03:47:25.918Z,0.77
2018-09-13T03:49:55.875Z,0.63
2018-09-13T03:52:25.865Z,0.80
2018-09-13T03:54:55.942Z,0.50
2018-09-13T03:57:25.890Z,0.80
2018-09-13T03:59:55.831Z,0.73
2018-09-13T04:02:25.478Z,0.73
2018-09-13T04:04:55.241Z,0.60
2018-09-13T04:07:25.378Z,0.70
2018-09-13T04:09:55.342Z,0.60
2018-09-13T04:12:26.498Z,1.10
2018-09-13T04:14:56.109Z,1.43
2018-09-13T04:17:25.537Z,1.00
2018-09-13T04:19:54.913Z,0.93
2018-09-13T04:22:24.367Z,0.73
2018-09-13T04:24:54.076Z,0.70
2018-09-13T04:27:23.756Z,0.50
2018-09-13T04:29:53.192Z,0.53
2018-09-13T04:32:24.786Z,1.17
2018-09-13T04:34:54.405Z,0.87
2018-09-13T04:37:23.830Z,1.00
2018-09-13T04:39:53.560Z,0.60
2018-09-13T04:42:23.619Z,0.60
2018-09-13T04:44:53.877Z,1.10
2018-09-13T04:47:25.502Z,0.87
2018-09-13T04:49:55.503Z,1.13
2018-09-13T04:52:25.236Z,1.13
2018-09-13T04:54:54.639Z,1.10
2018-09-13T04:57:24.388Z,1.03
2018-09-13T04:59:54.044Z,1.20
2018-09-13T05:02:23.546Z,0.87
2018-09-13T05:04:52.936Z,1.27
2018-09-13T05:07:22.430Z,1.43
2018-09-13T05:09:51.934Z,0.77
2018-09-13T05:12:21.676Z,1.40
2018-09-13T05:14:53.386Z,0.83
2018-09-13T05:17:22.790Z,1.00
2018-09-13T05:19:52.268Z,1.23
2018-09-13T05:22:21.729Z,1.40
2018-09-13T05:24:51.206Z,1.10
2018-09-13T05:27:20.972Z,1.00
2018-09-13T05:29:50.941Z,1.10
2018-09-13T05:32:20.566Z,1.50
2018-09-13T05:34:50.204Z,1.50
2018-09-13T05:37:19.978Z,0.90
2018-09-13T05:39:49.774Z,1.13
2018-09-13T05:42:19.208Z,1.43
2018-09-13T05:44:48.868Z,0.70
2018-09-13T05:47:19.918Z,1.17
2018-09-13T05:49:50.938Z,1.30
2018-09-13T05:52:20.355Z,1.00
2018-09-13T05:54:50.162Z,1.33
2018-09-13T05:57:20.208Z,0.90
2018-09-13T05:59:51.041Z,0.80
2018-09-13T06:02:20.790Z,1.00
2018-09-13T06:04:50.556Z,1.00
2018-09-13T06:07:20.173Z,1.30
2018-09-13T06:09:49.808Z,0.97
2018-09-13T06:12:19.661Z,1.20
2018-09-13T06:14:53.408Z,1.00
2018-09-13T06:17:23.423Z,1.07
2018-09-13T06:19:53.715Z,1.00
2018-09-13T06:22:25.280Z,1.60
2018-09-13T06:24:54.925Z,1.70
2018-09-13T06:27:25.752Z,1.80
2018-09-13T06:29:55.740Z,2.30
2018-09-13T06:32:25.792Z,3.43
2018-09-13T06:34:55.966Z,2.97
2018-09-13T06:37:26.912Z,2.83
2018-09-13T06:39:57.209Z,2.97
2018-09-13T06:42:26.720Z,2.50
2018-09-13T06:44:58.090Z,3.27
2018-09-13T06:47:29.030Z,2.80
2018-09-13T06:50:04.002Z,3.33
2018-09-13T06:52:33.562Z,2.60
2018-09-13T06:55:05.212Z,3.80
2018-09-13T06:57:34.901Z,2.57
2018-09-13T07:00:05.843Z,2.67
2018-09-13T07:02:36.546Z,3.70
2018-09-13T07:05:07.919Z,2.30
2018-09-13T07:07:37.766Z,3.63
2018-09-13T07:10:07.534Z,3.60
2018-09-13T07:12:37.678Z,2.57
2018-09-13T07:15:08.024Z,2.90
2018-09-13T07:17:37.691Z,2.53
2018-09-13T07:20:07.222Z,3.00
2018-09-13T07:22:37.788Z,2.40
2018-09-13T07:25:07.969Z,1.70
2018-09-13T07:27:37.615Z,2.47
2018-09-13T07:30:07.451Z,2.07
2018-09-13T07:32:37.510Z,2.10
2018-09-13T07:35:07.569Z,1.83
2018-09-13T07:37:37.569Z,1.80
2018-09-13T07:40:07.619Z,2.80
2018-09-13T07:42:37.708Z,2.10
2018-09-13T07:45:07.822Z,2.77
2018-09-13T07:47:37.698Z,1.80
2018-09-13T07:50:07.756Z,2.10
2018-09-13T07:52:38.495Z,1.40
2018-09-13T07:55:08.665Z,2.43
2018-09-13T07:57:38.331Z,1.83
2018-09-13T08:00:10.115Z,1.57
2018-09-13T08:02:41.191Z,2.30
2018-09-13T08:05:11.391Z,2.20
2018-09-13T08:07:41.787Z,1.83
2018-09-13T08:10:12.856Z,1.50
2018-09-13T08:12:42.283Z,1.70
2018-09-13T08:15:11.747Z,1.43
2018-09-13T08:17:41.526Z,1.70
2018-09-13T08:20:11.275Z,1.10
2018-09-13T08:22:41.107Z,1.77
2018-09-13T08:25:11.211Z,1.50
2018-09-13T08:27:40.922Z,1.20
2018-09-13T08:30:10.734Z,1.80
2018-09-13T08:32:41.187Z,1.30
2018-09-13T08:35:11.225Z,1.30
2018-09-13T08:37:41.145Z,1.93
2018-09-13T08:40:10.829Z,2.03
2018-09-13T08:42:40.576Z,1.97
2018-09-13T08:45:10.227Z,1.20
2018-09-13T08:47:39.726Z,1.73
2018-09-13T08:50:09.593Z,0.90
2018-09-13T08:52:39.551Z,1.13
2018-09-13T08:55:10.309Z,1.23
2018-09-13T08:57:40.489Z,2.10
2018-09-13T09:00:12.411Z,0.50
2018-09-13T09:02:42.839Z,1.13
2018-09-13T09:05:12.797Z,0.40
2018-09-13T09:07:42.551Z,1.00
2018-09-13T09:10:12.383Z,0.70
2018-09-13T09:12:42.359Z,1.27
2018-09-13T09:15:12.329Z,0.85
2018-09-13T09:17:42.299Z,0.53
2018-09-13T09:20:12.249Z,0.72
2018-09-13T09:22:41.897Z,0.97
2018-09-13T09:25:11.300Z,0.70
2018-09-13T09:27:40.715Z,0.80
2018-09-13T09:30:10.101Z,0.50
2018-09-13T09:32:39.871Z,1.10
2018-09-13T09:35:09.919Z,0.47
2018-09-13T09:37:39.874Z,0.73
2018-09-13T09:40:10.233Z,0.90
2018-09-13T09:42:40.075Z,0.53
2018-09-13T09:45:09.707Z,0.33
2018-09-13T09:47:39.459Z,0.50
2018-09-13T09:50:09.517Z,0.87
2018-09-13T09:52:39.469Z,0.50
2018-09-13T09:55:09.093Z,0.67
2018-09-13T09:57:38.925Z,0.60
2018-09-13T10:00:08.561Z,1.00
2018-09-13T10:02:38.341Z,0.60
2018-09-13T10:05:08.301Z,0.70
2018-09-13T10:07:38.017Z,0.40
2018-09-13T10:10:20.645Z,0.60
2018-09-13T10:12:53.468Z,0.77
2018-09-13T10:15:28.799Z,0.30
2018-09-13T10:18:03.965Z,0.87
2018-09-13T10:20:39.215Z,0.87
2018-09-13T10:23:14.189Z,0.70
2018-09-13T10:25:48.894Z,0.90
2018-09-13T10:28:23.741Z,0.40
2018-09-13T10:30:58.724Z,0.87
2018-09-13T10:33:34.099Z,0.40
2018-09-13T10:36:09.445Z,0.40
2018-09-13T10:38:44.693Z,0.73
2018-09-13T10:41:20.138Z,0.90
2018-09-13T10:43:55.100Z,1.43
2018-09-13T10:46:26.547Z,1.63
2018-09-13T10:49:01.633Z,0.70
2018-09-13T10:52:38.093Z,0.97
2018-09-13T10:55:07.883Z,0.60
2018-09-13T10:57:42.873Z,0.70
2018-09-13T11:00:14.818Z,0.47
2018-09-13T11:02:44.433Z,0.83
2018-09-13T11:05:14.303Z,0.67
2018-09-13T11:07:44.275Z,0.43
2018-09-13T11:10:14.419Z,0.70
2018-09-13T11:12:49.353Z,0.77
2018-09-13T11:15:27.368Z,0.67
2018-09-13T11:17:58.805Z,0.70
2018-09-13T11:20:28.843Z,0.40
2018-09-13T11:22:58.457Z,0.50
2018-09-13T11:25:28.359Z,0.50
2018-09-13T11:27:58.021Z,0.60
2018-09-13T11:30:28.132Z,0.40
2018-09-13T11:32:57.733Z,0.40
2018-09-13T11:35:27.531Z,0.50
2018-09-13T11:37:57.589Z,0.80
2018-09-13T11:40:27.365Z,0.60
2018-09-13T11:42:56.715Z,0.50
2018-09-13T11:45:26.104Z,0.50
2018-09-13T11:48:01.853Z,0.70
2018-09-13T11:50:32.401Z,0.70
2018-09-13T11:53:02.163Z,0.47
2018-09-13T11:55:32.181Z,0.40
2018-09-13T11:58:01.799Z,0.40
2018-09-13T12:00:31.575Z,0.70
2018-09-13T12:03:01.549Z,0.50
2018-09-13T12:05:31.218Z,0.50
2018-09-13T12:08:00.998Z,0.47
2018-09-13T12:10:31.003Z,0.43
2018-09-13T12:13:05.836Z,0.50
2018-09-13T12:15:37.680Z,0.40
2018-09-13T12:18:07.372Z,0.33
2018-09-13T12:20:37.113Z,0.53
2018-09-13T12:23:07.110Z,0.50
2018-09-13T12:25:36.744Z,0.40
2018-09-13T12:28:07.111Z,0.30
2018-09-13T12:30:36.739Z,0.50
2018-09-13T12:33:06.492Z,0.50
2018-09-13T12:35:36.526Z,0.50
2018-09-13T12:38:06.810Z,0.47
2018-09-13T12:40:37.771Z,0.40
2018-09-13T12:43:07.781Z,0.50
2018-09-13T12:45:37.754Z,0.40
2018-09-13T12:48:07.721Z,0.40
2018-09-13T12:50:37.530Z,0.50
2018-09-13T12:53:07.184Z,0.53
2018-09-13T12:55:42.279Z,0.40
2018-09-13T12:58:11.907Z,0.50
2018-09-13T13:00:41.713Z,0.40
2018-09-13T13:03:11.138Z,0.60
2018-09-13T13:05:40.926Z,0.67
2018-09-13T13:08:11.125Z,0.60
2018-09-13T13:10:46.919Z,0.40
2018-09-13T13:13:16.547Z,0.50
2018-09-13T13:15:52.502Z,0.50
2018-09-13T13:18:23.822Z,0.50
2018-09-13T13:20:53.909Z,0.40
2018-09-13T13:23:24.107Z,0.50
2018-09-13T13:25:53.806Z,0.30
2018-09-13T13:28:23.604Z,0.30
2018-09-13T13:30:53.609Z,0.30
2018-09-13T13:33:23.623Z,0.47
2018-09-13T13:35:53.273Z,0.43
2018-09-13T13:38:23.135Z,0.70
2018-09-13T13:40:53.484Z,0.40
2018-09-13T13:43:24.210Z,0.50
2018-09-13T13:45:53.908Z,0.70
2018-09-13T13:48:23.846Z,0.40
2018-09-13T13:50:53.832Z,0.37
2018-09-13T13:53:23.807Z,0.37
2018-09-13T13:55:53.452Z,0.50
2018-09-13T13:58:23.228Z,0.40
2018-09-13T14:00:53.192Z,0.50
2018-09-13T14:03:22.829Z,0.50
2018-09-13T14:05:52.711Z,0.40
2018-09-13T14:08:22.711Z,0.33
2018-09-13T14:10:52.693Z,0.40
2018-09-13T14:13:22.631Z,0.43
2018-09-13T14:15:52.256Z,0.40
2018-09-13T14:18:21.999Z,0.40
2018-09-13T14:20:51.725Z,0.50
2018-09-13T14:23:21.506Z,0.30
2018-09-13T14:25:51.513Z,0.53
2018-09-13T14:28:21.517Z,0.70
2018-09-13T14:30:51.629Z,0.37
2018-09-13T14:33:21.681Z,0.50
2018-09-13T14:35:51.316Z,0.50
2018-09-13T14:38:21.167Z,0.40
2018-09-13T14:40:51.138Z,0.47
2018-09-13T14:43:21.184Z,0.67
2018-09-13T14:45:53.204Z,0.40
2018-09-13T14:48:23.287Z,0.60
2018-09-13T14:50:53.296Z,0.40
2018-09-13T14:53:23.283Z,0.40
2018-09-13T14:55:52.916Z,0.57
2018-09-13T14:58:22.665Z,0.40
2018-09-13T15:00:52.309Z,0.57
2018-09-13T15:03:22.230Z,0.60
2018-09-13T15:05:52.229Z,0.60
2018-09-13T15:08:22.391Z,0.30
2018-09-13T15:10:52.401Z,0.37
2018-09-13T15:13:22.389Z,0.50
2018-09-13T15:15:52.357Z,0.70
2018-09-13T15:18:23.341Z,0.53
2018-09-13T15:20:53.314Z,0.60
2018-09-13T15:23:23.273Z,0.70
2018-09-13T15:25:53.114Z,0.30
2018-09-13T15:28:22.882Z,0.73
2018-09-13T15:30:52.702Z,1.00
2018-09-13T15:33:22.501Z,0.50
2018-09-13T15:35:52.194Z,0.73
2018-09-13T15:38:22.101Z,0.60
2018-09-13T15:40:51.724Z,0.80
2018-09-13T15:43:21.569Z,0.90
2018-09-13T15:45:51.187Z,0.80
2018-09-13T15:48:20.985Z,0.90
2018-09-13T15:50:51.027Z,0.60
2018-09-13T15:53:20.663Z,0.60
2018-09-13T15:55:50.474Z,0.30
2018-09-13T15:58:20.444Z,1.00
2018-09-13T16:00:50.109Z,0.50
2018-09-13T16:03:19.538Z,0.60
2018-09-13T16:05:49.320Z,1.10
2018-09-13T16:08:19.304Z,0.60
2018-09-13T16:10:49.550Z,1.60
2018-09-13T16:13:19.219Z,0.60
2018-09-13T16:15:48.814Z,0.40
2018-09-13T16:18:18.569Z,0.67
2018-09-13T16:20:48.429Z,0.43
2018-09-13T16:23:17.858Z,0.40
2018-09-13T16:25:47.642Z,0.40
2018-09-13T16:28:17.657Z,0.53
2018-09-13T16:30:47.614Z,0.37
2018-09-13T16:33:17.573Z,0.60
2018-09-13T16:35:51.002Z,0.60
2018-09-13T16:38:29.401Z,0.60
2018-09-13T16:41:05.546Z,0.50
2018-09-13T16:43:40.780Z,0.50
2018-09-13T16:46:15.787Z,0.70
2018-09-13T16:48:45.586Z,0.40
2018-09-13T16:51:15.667Z,0.80
2018-09-13T16:53:46.376Z,0.50
2018-09-13T16:56:16.498Z,0.60
2018-09-13T16:58:47.209Z,0.87
2018-09-13T17:01:17.243Z,0.60
2018-09-13T17:03:46.915Z,0.60
2018-09-13T17:06:16.779Z,0.77
2018-09-13T17:08:46.444Z,0.47
2018-09-13T17:11:16.210Z,0.63
2018-09-13T17:13:46.027Z,0.50
2018-09-13T17:16:15.552Z,1.23
2018-09-13T17:18:45.031Z,0.90
2018-09-13T17:21:15.724Z,0.50
2018-09-13T17:23:45.690Z,1.00
2018-09-13T17:26:15.305Z,0.40
2018-09-13T17:28:44.684Z,0.70
2018-09-13T17:31:14.136Z,0.60
2018-09-13T17:33:43.712Z,0.50
2018-09-13T17:36:13.435Z,0.50
2018-09-13T17:38:43.137Z,0.70
2018-09-13T17:41:12.920Z,0.90
2018-09-13T17:43:42.591Z,1.57
2018-09-13T17:46:12.153Z,0.40
2018-09-13T17:48:41.864Z,0.80
2018-09-13T17:51:11.635Z,0.80
2018-09-13T17:53:41.417Z,0.70
2018-09-13T17:56:11.114Z,0.70
2018-09-13T17:58:40.827Z,0.40
2018-09-13T18:01:10.488Z,0.30
2018-09-13T18:03:40.005Z,0.77
2018-09-13T18:06:09.396Z,0.40
2018-09-13T18:08:39.246Z,0.50
2018-09-13T18:11:09.072Z,0.57
2018-09-13T18:13:39.252Z,0.50
2018-09-13T18:16:08.871Z,0.80
2018-09-13T18:18:38.363Z,1.03
2018-09-13T18:21:08.122Z,0.87
2018-09-13T18:23:38.136Z,0.80
2018-09-13T18:26:07.753Z,0.40
2018-09-13T18:28:37.541Z,0.70
2018-09-13T18:31:07.776Z,1.13
2018-09-13T18:33:37.414Z,0.63
2018-09-13T18:36:06.924Z,0.40
2018-09-13T18:38:36.792Z,0.70
2018-09-13T18:41:06.984Z,1.23
2018-09-13T18:43:36.986Z,0.80
2018-09-13T18:46:07.055Z,0.43
2018-09-13T18:48:36.765Z,0.50
2018-09-13T18:51:06.632Z,0.40
2018-09-13T18:53:36.341Z,0.60
2018-09-13T18:56:08.627Z,0.97
2018-09-13T18:58:38.607Z,0.80
2018-09-13T19:01:08.487Z,0.63
2018-09-13T19:03:38.149Z,0.40
2018-09-13T19:06:08.260Z,0.60
2018-09-13T19:08:38.274Z,0.50
2018-09-13T19:11:08.057Z,0.43
2018-09-13T19:13:37.836Z,0.83
2018-09-13T19:16:08.187Z,0.70
2018-09-13T19:18:38.214Z,1.60
2018-09-13T19:21:08.305Z,0.57
2018-09-13T19:23:38.287Z,0.80
2018-09-13T19:26:08.254Z,0.77
2018-09-13T19:28:37.937Z,1.00
2018-09-13T19:31:08.017Z,1.07
2018-09-13T19:33:37.612Z,0.53
2018-09-13T19:36:07.410Z,0.67
2018-09-13T19:38:37.463Z,0.73
2018-09-13T19:41:07.476Z,0.50
2018-09-13T19:43:37.515Z,0.70
2018-09-13T19:46:07.546Z,1.10
2018-09-13T19:48:37.607Z,0.83
2018-09-13T19:51:07.663Z,0.90
2018-09-13T19:53:37.417Z,0.77
2018-09-13T19:56:07.153Z,0.80
2018-09-13T19:58:36.919Z,0.90
2018-09-13T20:01:06.568Z,0.70
2018-09-13T20:03:36.025Z,0.70
2018-09-13T20:06:05.647Z,0.77
2018-09-13T20:08:35.575Z,1.00
2018-09-13T20:11:05.712Z,0.67
2018-09-13T20:13:35.329Z,0.90
2018-09-13T20:16:04.744Z,0.33
2018-09-13T20:18:34.293Z,0.87
2018-09-13T20:21:04.068Z,0.40
2018-09-13T20:23:33.688Z,0.50
2018-09-13T20:26:03.472Z,0.90
2018-09-13T20:28:33.136Z,0.60
2018-09-13T20:31:02.866Z,1.27
2018-09-13T20:33:32.816Z,0.72
2018-09-13T20:36:02.782Z,0.80
2018-09-13T20:38:32.498Z,0.77
2018-09-13T20:41:01.944Z,0.97
2018-09-13T20:43:31.678Z,0.60
2018-09-13T20:46:01.365Z,0.60
2018-09-13T20:48:30.836Z,0.80
2018-09-13T20:51:00.474Z,1.33
2018-09-13T20:53:31.852Z,0.90
2018-09-13T20:56:01.458Z,0.83
2018-09-13T20:58:30.852Z,0.80
2018-09-13T21:01:00.330Z,0.90
2018-09-13T21:03:30.144Z,0.90
2018-09-13T21:06:00.176Z,0.60
2018-09-13T21:08:29.830Z,0.70
2018-09-13T21:10:59.724Z,1.03
2018-09-13T21:13:29.694Z,1.13
2018-09-13T21:15:59.697Z,1.03
2018-09-13T21:18:29.322Z,1.10
2018-09-13T21:20:59.064Z,1.33
2018-09-13T21:23:28.706Z,0.77
2018-09-13T21:25:58.121Z,1.23
2018-09-13T21:28:27.884Z,1.63
2018-09-13T21:30:58.510Z,0.77
2018-09-13T21:33:27.908Z,1.00
2018-09-13T21:35:57.395Z,0.83
2018-09-13T21:38:27.224Z,0.90
2018-09-13T21:40:57.203Z,1.10
2018-09-13T21:43:35.176Z,0.83
2018-09-13T21:46:11.030Z,1.03
2018-09-13T21:48:41.116Z,1.30
2018-09-13T21:51:10.905Z,1.13
2018-09-13T21:53:40.594Z,0.70
2018-09-13T21:56:10.040Z,1.00
2018-09-13T21:58:39.504Z,0.90
2018-09-13T22:01:09.278Z,0.93
2018-09-13T22:03:39.254Z,1.07
2018-09-13T22:06:09.368Z,0.93
2018-09-13T22:08:39.356Z,1.00
2018-09-13T22:11:09.458Z,0.47
2018-09-13T22:13:39.032Z,0.87
2018-09-13T22:16:08.844Z,0.73
2018-09-13T22:18:38.454Z,0.77
2018-09-13T22:21:07.913Z,0.70
2018-09-13T22:23:37.613Z,0.90
2018-09-13T22:26:07.325Z,0.90
2018-09-13T22:28:37.062Z,1.07
2018-09-13T22:31:06.692Z,1.40
2018-09-13T22:33:36.474Z,0.77
2018-09-13T22:36:06.076Z,0.80
2018-09-13T22:38:35.812Z,0.87
2018-09-13T22:41:05.811Z,0.80
2018-09-13T22:43:40.846Z,0.83
2018-09-13T22:46:10.240Z,0.67
2018-09-13T22:48:39.748Z,0.87
2018-09-13T22:51:09.995Z,0.83
2018-09-13T22:53:39.606Z,1.67
2018-09-13T22:56:09.338Z,0.53
2018-09-13T22:58:39.080Z,0.73
2018-09-13T23:01:08.828Z,0.80
2018-09-13T23:03:38.793Z,0.70
2018-09-13T23:06:08.810Z,0.97
2018-09-13T23:08:38.440Z,0.90
2018-09-13T23:11:08.206Z,0.70
2018-09-13T23:13:38.133Z,0.50
2018-09-13T23:16:08.214Z,1.00
2018-09-13T23:18:37.775Z,1.43
2018-09-13T23:21:07.189Z,0.93
2018-09-13T23:23:36.952Z,0.70
2018-09-13T23:26:07.042Z,0.97
2018-09-13T23:28:37.003Z,1.00
2018-09-13T23:31:07.122Z,0.97
2018-09-13T23:33:37.058Z,1.53
2018-09-13T23:36:06.670Z,1.03
2018-09-13T23:38:36.420Z,0.90
2018-09-13T23:41:06.380Z,1.73
2018-09-13T23:43:36.444Z,1.03
2018-09-13T23:46:06.400Z,1.13
2018-09-13T23:48:36.372Z,1.70
2018-09-13T23:51:06.104Z,1.30
2018-09-13T23:53:35.957Z,1.47
2018-09-13T23:56:05.910Z,1.00
2018-09-13T23:58:35.884Z,1.00
